sensor_id;sensor_type;location;lat;lon;timestamp;pressure;altitude;pressure_sealevel;temperature
19666;BMP180;9980;51.020;7.772;2022-09-01T00:00:06;98017.00;;;18.60
19666;BMP180;9980;51.020;7.772;2022-09-01T00:02:34;98016.00;;;18.60
19666;BMP180;9980;51.020;7.772;2022-09-01T00:05:02;98033.00;;;18.50
19666;BMP180;9980;51.020;7.772;2022-09-01T00:07:30;98018.00;;;18.50
19666;BMP180;9980;51.020;7.772;2022-09-01T00:09:58;98021.00;;;18.40
19666;BMP180;9980;51.020;7.772;2022-09-01T00:12:27;98013.00;;;18.40
19666;BMP180;9980;51.020;7.772;2022-09-01T00:14:54;98016.00;;;18.30
19666;BMP180;9980;51.020;7.772;2022-09-01T00:17:21;98031.00;;;18.30
19666;BMP180;9980;51.020;7.772;2022-09-01T00:19:48;98027.00;;;18.20
19666;BMP180;9980;51.020;7.772;2022-09-01T00:22:16;98028.00;;;18.20
19666;BMP180;9980;51.020;7.772;2022-09-01T00:24:43;98047.00;;;18.10
19666;BMP180;9980;51.020;7.772;2022-09-01T00:27:10;98043.00;;;18.10
19666;BMP180;9980;51.020;7.772;2022-09-01T00:29:38;98031.00;;;18.10
19666;BMP180;9980;51.020;7.772;2022-09-01T00:32:11;98027.00;;;18.00
19666;BMP180;9980;51.020;7.772;2022-09-01T00:34:38;98031.00;;;18.00
19666;BMP180;9980;51.020;7.772;2022-09-01T00:37:06;98023.00;;;17.90
19666;BMP180;9980;51.020;7.772;2022-09-01T00:39:33;98033.00;;;17.90
19666;BMP180;9980;51.020;7.772;2022-09-01T00:42:00;98036.00;;;17.80
19666;BMP180;9980;51.020;7.772;2022-09-01T00:44:29;98021.00;;;17.80
19666;BMP180;9980;51.020;7.772;2022-09-01T00:46:58;98031.00;;;17.70
19666;BMP180;9980;51.020;7.772;2022-09-01T00:49:38;98036.00;;;17.70
19666;BMP180;9980;51.020;7.772;2022-09-01T00:52:14;98032.00;;;17.60
19666;BMP180;9980;51.020;7.772;2022-09-01T00:54:48;98024.00;;;17.60
19666;BMP180;9980;51.020;7.772;2022-09-01T00:57:16;98032.00;;;17.60
19666;BMP180;9980;51.020;7.772;2022-09-01T01:00:04;98023.00;;;17.50
19666;BMP180;9980;51.020;7.772;2022-09-01T01:02:32;98017.00;;;17.50
19666;BMP180;9980;51.020;7.772;2022-09-01T01:04:59;98023.00;;;17.40
19666;BMP180;9980;51.020;7.772;2022-09-01T01:07:27;98012.00;;;17.40
19666;BMP180;9980;51.020;7.772;2022-09-01T01:09:55;98024.00;;;17.30
19666;BMP180;9980;51.020;7.772;2022-09-01T01:12:22;98023.00;;;17.30
19666;BMP180;9980;51.020;7.772;2022-09-01T01:14:49;98015.00;;;17.20
19666;BMP180;9980;51.020;7.772;2022-09-01T01:17:20;98015.00;;;17.20
19666;BMP180;9980;51.020;7.772;2022-09-01T01:19:54;98006.00;;;17.10
19666;BMP180;9980;51.020;7.772;2022-09-01T01:28:26;98004.00;;;17.00
19666;BMP180;9980;51.020;7.772;2022-09-01T01:31:08;98015.00;;;16.90
19666;BMP180;9980;51.020;7.772;2022-09-01T01:33:50;98016.00;;;16.90
19666;BMP180;9980;51.020;7.772;2022-09-01T01:36:25;98022.00;;;16.80
19666;BMP180;9980;51.020;7.772;2022-09-01T01:39:09;98018.00;;;16.80
19666;BMP180;9980;51.020;7.772;2022-09-01T01:41:38;98004.00;;;16.80
19666;BMP180;9980;51.020;7.772;2022-09-01T01:44:11;98013.00;;;16.80
19666;BMP180;9980;51.020;7.772;2022-09-01T01:46:48;98023.00;;;16.70
19666;BMP180;9980;51.020;7.772;2022-09-01T01:49:19;98025.00;;;16.70
19666;BMP180;9980;51.020;7.772;2022-09-01T01:51:51;98024.00;;;16.60
19666;BMP180;9980;51.020;7.772;2022-09-01T01:54:25;98029.00;;;16.60
19666;BMP180;9980;51.020;7.772;2022-09-01T01:56:55;98028.00;;;16.60
19666;BMP180;9980;51.020;7.772;2022-09-01T01:59:24;98035.00;;;16.50
19666;BMP180;9980;51.020;7.772;2022-09-01T02:01:52;98024.00;;;16.50
19666;BMP180;9980;51.020;7.772;2022-09-01T02:04:19;98034.00;;;16.50
19666;BMP180;9980;51.020;7.772;2022-09-01T02:06:48;98026.00;;;16.50
19666;BMP180;9980;51.020;7.772;2022-09-01T02:09:19;98034.00;;;16.30
19666;BMP180;9980;51.020;7.772;2022-09-01T02:11:49;98032.00;;;16.40
19666;BMP180;9980;51.020;7.772;2022-09-01T02:14:23;98030.00;;;16.40
19666;BMP180;9980;51.020;7.772;2022-09-01T02:16:50;98028.00;;;16.40
19666;BMP180;9980;51.020;7.772;2022-09-01T02:19:18;98024.00;;;16.30
19666;BMP180;9980;51.020;7.772;2022-09-01T02:21:46;98033.00;;;16.30
19666;BMP180;9980;51.020;7.772;2022-09-01T02:24:22;98014.00;;;16.30
19666;BMP180;9980;51.020;7.772;2022-09-01T02:26:57;98013.00;;;16.20
19666;BMP180;9980;51.020;7.772;2022-09-01T02:29:28;98010.00;;;16.20
19666;BMP180;9980;51.020;7.772;2022-09-01T02:31:59;98022.00;;;16.20
19666;BMP180;9980;51.020;7.772;2022-09-01T02:34:28;98010.00;;;16.10
19666;BMP180;9980;51.020;7.772;2022-09-01T02:36:56;98015.00;;;16.10
19666;BMP180;9980;51.020;7.772;2022-09-01T02:39:29;98009.00;;;16.00
19666;BMP180;9980;51.020;7.772;2022-09-01T02:41:58;98012.00;;;16.00
19666;BMP180;9980;51.020;7.772;2022-09-01T02:44:28;98018.00;;;16.00
19666;BMP180;9980;51.020;7.772;2022-09-01T02:46:58;98013.00;;;16.00
19666;BMP180;9980;51.020;7.772;2022-09-01T02:49:26;98011.00;;;15.90
19666;BMP180;9980;51.020;7.772;2022-09-01T02:51:58;98000.00;;;15.90
19666;BMP180;9980;51.020;7.772;2022-09-01T02:54:30;98005.00;;;15.90
19666;BMP180;9980;51.020;7.772;2022-09-01T02:56:59;98015.00;;;15.80
19666;BMP180;9980;51.020;7.772;2022-09-01T02:59:28;98016.00;;;15.80
19666;BMP180;9980;51.020;7.772;2022-09-01T03:01:59;98016.00;;;15.80
19666;BMP180;9980;51.020;7.772;2022-09-01T03:04:27;98011.00;;;15.70
19666;BMP180;9980;51.020;7.772;2022-09-01T03:06:54;97997.00;;;15.70
19666;BMP180;9980;51.020;7.772;2022-09-01T03:09:24;98014.00;;;15.70
19666;BMP180;9980;51.020;7.772;2022-09-01T03:11:53;98005.00;;;15.60
19666;BMP180;9980;51.020;7.772;2022-09-01T03:14:23;98001.00;;;15.60
19666;BMP180;9980;51.020;7.772;2022-09-01T03:16:52;97999.00;;;15.60
19666;BMP180;9980;51.020;7.772;2022-09-01T03:19:19;98003.00;;;15.50
19666;BMP180;9980;51.020;7.772;2022-09-01T03:21:47;98006.00;;;15.50
19666;BMP180;9980;51.020;7.772;2022-09-01T03:24:18;98018.00;;;15.50
19666;BMP180;9980;51.020;7.772;2022-09-01T03:26:49;98013.00;;;15.40
19666;BMP180;9980;51.020;7.772;2022-09-01T03:29:18;98023.00;;;15.40
19666;BMP180;9980;51.020;7.772;2022-09-01T03:31:46;98003.00;;;15.40
19666;BMP180;9980;51.020;7.772;2022-09-01T03:34:13;98014.00;;;15.30
19666;BMP180;9980;51.020;7.772;2022-09-01T03:36:47;98003.00;;;15.30
19666;BMP180;9980;51.020;7.772;2022-09-01T03:39:26;98001.00;;;15.30
19666;BMP180;9980;51.020;7.772;2022-09-01T03:41:53;98005.00;;;15.20
19666;BMP180;9980;51.020;7.772;2022-09-01T03:44:20;98003.00;;;15.20
19666;BMP180;9980;51.020;7.772;2022-09-01T03:46:47;97990.00;;;15.10
19666;BMP180;9980;51.020;7.772;2022-09-01T03:49:14;97996.00;;;15.20
19666;BMP180;9980;51.020;7.772;2022-09-01T03:51:43;97989.00;;;15.10
19666;BMP180;9980;51.020;7.772;2022-09-01T03:54:12;98008.00;;;15.10
19666;BMP180;9980;51.020;7.772;2022-09-01T03:56:39;98003.00;;;15.10
19666;BMP180;9980;51.020;7.772;2022-09-01T03:59:14;98002.00;;;15.00
19666;BMP180;9980;51.020;7.772;2022-09-01T04:01:46;97999.00;;;15.00
19666;BMP180;9980;51.020;7.772;2022-09-01T04:04:14;97994.00;;;15.00
19666;BMP180;9980;51.020;7.772;2022-09-01T04:06:44;98000.00;;;14.90
19666;BMP180;9980;51.020;7.772;2022-09-01T04:09:12;97990.00;;;14.90
19666;BMP180;9980;51.020;7.772;2022-09-01T04:11:42;98003.00;;;14.80
19666;BMP180;9980;51.020;7.772;2022-09-01T04:14:14;97999.00;;;14.80
19666;BMP180;9980;51.020;7.772;2022-09-01T04:16:43;97994.00;;;14.80
19666;BMP180;9980;51.020;7.772;2022-09-01T04:19:34;97995.00;;;14.70
19666;BMP180;9980;51.020;7.772;2022-09-01T04:22:04;97996.00;;;14.70
19666;BMP180;9980;51.020;7.772;2022-09-01T04:24:39;97995.00;;;14.70
19666;BMP180;9980;51.020;7.772;2022-09-01T04:27:13;98005.00;;;14.70
19666;BMP180;9980;51.020;7.772;2022-09-01T04:29:41;98007.00;;;14.60
19666;BMP180;9980;51.020;7.772;2022-09-01T04:32:09;97986.00;;;14.60
19666;BMP180;9980;51.020;7.772;2022-09-01T04:34:41;97999.00;;;14.60
19666;BMP180;9980;51.020;7.772;2022-09-01T04:37:16;97997.00;;;14.50
19666;BMP180;9980;51.020;7.772;2022-09-01T04:39:53;98009.00;;;14.50
19666;BMP180;9980;51.020;7.772;2022-09-01T04:42:27;97997.00;;;14.50
19666;BMP180;9980;51.020;7.772;2022-09-01T04:44:56;97997.00;;;14.40
19666;BMP180;9980;51.020;7.772;2022-09-01T04:47:29;97996.00;;;14.40
19666;BMP180;9980;51.020;7.772;2022-09-01T04:50:06;97989.00;;;14.30
19666;BMP180;9980;51.020;7.772;2022-09-01T04:52:44;98004.00;;;14.30
19666;BMP180;9980;51.020;7.772;2022-09-01T04:55:24;97999.00;;;14.30
19666;BMP180;9980;51.020;7.772;2022-09-01T04:57:58;98002.00;;;14.30
19666;BMP180;9980;51.020;7.772;2022-09-01T05:00:27;97990.00;;;14.20
19666;BMP180;9980;51.020;7.772;2022-09-01T05:03:02;97989.00;;;14.20
19666;BMP180;9980;51.020;7.772;2022-09-01T05:05:51;98004.00;;;14.20
19666;BMP180;9980;51.020;7.772;2022-09-01T05:08:21;98004.00;;;14.20
19666;BMP180;9980;51.020;7.772;2022-09-01T05:10:54;97991.00;;;14.10
19666;BMP180;9980;51.020;7.772;2022-09-01T05:13:42;97998.00;;;14.10
19666;BMP180;9980;51.020;7.772;2022-09-01T05:16:19;98007.00;;;14.10
19666;BMP180;9980;51.020;7.772;2022-09-01T05:18:54;98008.00;;;14.10
19666;BMP180;9980;51.020;7.772;2022-09-01T05:21:27;97994.00;;;14.10
19666;BMP180;9980;51.020;7.772;2022-09-01T05:23:58;97992.00;;;14.10
19666;BMP180;9980;51.020;7.772;2022-09-01T05:26:30;98002.00;;;14.10
19666;BMP180;9980;51.020;7.772;2022-09-01T05:29:03;98000.00;;;14.10
19666;BMP180;9980;51.020;7.772;2022-09-01T05:31:36;97987.00;;;14.10
19666;BMP180;9980;51.020;7.772;2022-09-01T05:34:04;97985.00;;;14.10
19666;BMP180;9980;51.020;7.772;2022-09-01T05:36:31;97993.00;;;14.10
19666;BMP180;9980;51.020;7.772;2022-09-01T05:39:00;98001.00;;;14.10
19666;BMP180;9980;51.020;7.772;2022-09-01T05:41:28;98002.00;;;14.10
19666;BMP180;9980;51.020;7.772;2022-09-01T05:43:55;97997.00;;;14.20
19666;BMP180;9980;51.020;7.772;2022-09-01T05:46:28;98003.00;;;14.20
19666;BMP180;9980;51.020;7.772;2022-09-01T05:48:56;97995.00;;;14.20
19666;BMP180;9980;51.020;7.772;2022-09-01T05:51:26;98002.00;;;14.20
19666;BMP180;9980;51.020;7.772;2022-09-01T05:54:11;97998.00;;;14.30
19666;BMP180;9980;51.020;7.772;2022-09-01T05:56:43;98016.00;;;14.30
19666;BMP180;9980;51.020;7.772;2022-09-01T05:59:15;98000.00;;;14.40
19666;BMP180;9980;51.020;7.772;2022-09-01T06:02:07;98002.00;;;14.40
19666;BMP180;9980;51.020;7.772;2022-09-01T06:04:37;98008.00;;;14.50
19666;BMP180;9980;51.020;7.772;2022-09-01T06:07:12;97995.00;;;14.60
19666;BMP180;9980;51.020;7.772;2022-09-01T06:09:50;98002.00;;;14.70
19666;BMP180;9980;51.020;7.772;2022-09-01T06:12:21;97996.00;;;14.70
19666;BMP180;9980;51.020;7.772;2022-09-01T06:14:55;98002.00;;;14.80
19666;BMP180;9980;51.020;7.772;2022-09-01T06:17:25;98002.00;;;14.90
19666;BMP180;9980;51.020;7.772;2022-09-01T06:19:56;98012.00;;;15.00
19666;BMP180;9980;51.020;7.772;2022-09-01T06:22:27;97989.00;;;15.10
19666;BMP180;9980;51.020;7.772;2022-09-01T06:24:55;97990.00;;;15.20
19666;BMP180;9980;51.020;7.772;2022-09-01T06:27:35;98011.00;;;15.30
19666;BMP180;9980;51.020;7.772;2022-09-01T06:30:11;98008.00;;;15.40
19666;BMP180;9980;51.020;7.772;2022-09-01T06:33:06;98012.00;;;15.50
19666;BMP180;9980;51.020;7.772;2022-09-01T06:35:40;98004.00;;;15.60
19666;BMP180;9980;51.020;7.772;2022-09-01T06:38:10;98011.00;;;15.80
19666;BMP180;9980;51.020;7.772;2022-09-01T06:40:47;97992.00;;;15.90
19666;BMP180;9980;51.020;7.772;2022-09-01T06:43:17;97999.00;;;16.00
19666;BMP180;9980;51.020;7.772;2022-09-01T06:45:47;98013.00;;;16.20
19666;BMP180;9980;51.020;7.772;2022-09-01T06:48:21;98006.00;;;16.30
19666;BMP180;9980;51.020;7.772;2022-09-01T06:50:51;98007.00;;;16.40
19666;BMP180;9980;51.020;7.772;2022-09-01T06:53:43;97999.00;;;16.60
19666;BMP180;9980;51.020;7.772;2022-09-01T06:56:14;98012.00;;;16.80
19666;BMP180;9980;51.020;7.772;2022-09-01T06:58:44;98011.00;;;16.90
19666;BMP180;9980;51.020;7.772;2022-09-01T07:01:17;98005.00;;;17.10
19666;BMP180;9980;51.020;7.772;2022-09-01T07:03:50;98009.00;;;17.20
19666;BMP180;9980;51.020;7.772;2022-09-01T07:06:29;98005.00;;;17.40
19666;BMP180;9980;51.020;7.772;2022-09-01T07:09:18;98002.00;;;17.60
19666;BMP180;9980;51.020;7.772;2022-09-01T07:12:06;98018.00;;;17.80
19666;BMP180;9980;51.020;7.772;2022-09-01T07:14:51;98016.00;;;18.00
19666;BMP180;9980;51.020;7.772;2022-09-01T07:17:39;98014.00;;;18.10
19666;BMP180;9980;51.020;7.772;2022-09-01T07:20:09;98018.00;;;18.30
19666;BMP180;9980;51.020;7.772;2022-09-01T07:22:56;98027.00;;;18.50
19666;BMP180;9980;51.020;7.772;2022-09-01T07:25:38;98022.00;;;18.70
19666;BMP180;9980;51.020;7.772;2022-09-01T07:28:35;98025.00;;;18.80
19666;BMP180;9980;51.020;7.772;2022-09-01T07:31:03;98023.00;;;19.00
19666;BMP180;9980;51.020;7.772;2022-09-01T07:33:54;98005.00;;;19.10
19666;BMP180;9980;51.020;7.772;2022-09-01T07:36:44;98009.00;;;19.30
19666;BMP180;9980;51.020;7.772;2022-09-01T07:39:33;97999.00;;;19.50
19666;BMP180;9980;51.020;7.772;2022-09-01T07:42:40;98010.00;;;19.70
19666;BMP180;9980;51.020;7.772;2022-09-01T07:45:47;97997.00;;;19.80
19666;BMP180;9980;51.020;7.772;2022-09-01T07:48:28;97999.00;;;20.00
19666;BMP180;9980;51.020;7.772;2022-09-01T07:51:19;97986.00;;;20.10
19666;BMP180;9980;51.020;7.772;2022-09-01T07:54:04;97994.00;;;20.30
19666;BMP180;9980;51.020;7.772;2022-09-01T07:56:31;97991.00;;;20.50
19666;BMP180;9980;51.020;7.772;2022-09-01T07:59:05;97995.00;;;20.60
19666;BMP180;9980;51.020;7.772;2022-09-01T08:01:34;97996.00;;;20.80
19666;BMP180;9980;51.020;7.772;2022-09-01T08:04:02;97998.00;;;20.90
19666;BMP180;9980;51.020;7.772;2022-09-01T08:06:29;97987.00;;;21.10
19666;BMP180;9980;51.020;7.772;2022-09-01T08:09:05;97994.00;;;21.30
19666;BMP180;9980;51.020;7.772;2022-09-01T08:11:37;97983.00;;;21.40
19666;BMP180;9980;51.020;7.772;2022-09-01T08:14:25;97972.00;;;21.60
19666;BMP180;9980;51.020;7.772;2022-09-01T08:16:52;97987.00;;;21.70
19666;BMP180;9980;51.020;7.772;2022-09-01T08:19:19;97994.00;;;21.90
19666;BMP180;9980;51.020;7.772;2022-09-01T08:22:05;97981.00;;;22.00
19666;BMP180;9980;51.020;7.772;2022-09-01T08:24:55;97991.00;;;22.20
19666;BMP180;9980;51.020;7.772;2022-09-01T08:27:22;97988.00;;;22.30
19666;BMP180;9980;51.020;7.772;2022-09-01T08:29:49;97985.00;;;22.50
19666;BMP180;9980;51.020;7.772;2022-09-01T08:32:17;98003.00;;;22.60
19666;BMP180;9980;51.020;7.772;2022-09-01T08:34:43;97988.00;;;22.80
19666;BMP180;9980;51.020;7.772;2022-09-01T08:37:11;97989.00;;;22.90
19666;BMP180;9980;51.020;7.772;2022-09-01T08:39:39;97984.00;;;23.00
19666;BMP180;9980;51.020;7.772;2022-09-01T08:42:52;97989.00;;;23.10
19666;BMP180;9980;51.020;7.772;2022-09-01T08:48:24;97993.00;;;23.40
19666;BMP180;9980;51.020;7.772;2022-09-01T08:51:38;97981.00;;;23.60
19666;BMP180;9980;51.020;7.772;2022-09-01T08:57:02;97994.00;;;23.90
19666;BMP180;9980;51.020;7.772;2022-09-01T08:59:50;97981.00;;;24.00
19666;BMP180;9980;51.020;7.772;2022-09-01T09:05:42;97997.00;;;24.30
19666;BMP180;9980;51.020;7.772;2022-09-01T09:08:51;98005.00;;;24.40
19666;BMP180;9980;51.020;7.772;2022-09-01T09:14:50;97994.00;;;24.60
19666;BMP180;9980;51.020;7.772;2022-09-01T09:17:26;97997.00;;;24.70
19666;BMP180;9980;51.020;7.772;2022-09-01T09:19:59;97997.00;;;24.80
19666;BMP180;9980;51.020;7.772;2022-09-01T09:22:26;97990.00;;;24.90
19666;BMP180;9980;51.020;7.772;2022-09-01T09:25:11;97995.00;;;24.90
19666;BMP180;9980;51.020;7.772;2022-09-01T09:27:48;97994.00;;;25.00
19666;BMP180;9980;51.020;7.772;2022-09-01T09:30:29;97984.00;;;25.00
19666;BMP180;9980;51.020;7.772;2022-09-01T09:33:06;97971.00;;;25.00
19666;BMP180;9980;51.020;7.772;2022-09-01T09:36:20;97985.00;;;25.10
19666;BMP180;9980;51.020;7.772;2022-09-01T09:39:12;97978.00;;;25.20
19666;BMP180;9980;51.020;7.772;2022-09-01T09:41:40;97966.00;;;25.30
19666;BMP180;9980;51.020;7.772;2022-09-01T09:44:25;97966.00;;;25.40
19666;BMP180;9980;51.020;7.772;2022-09-01T09:46:54;97973.00;;;25.60
19666;BMP180;9980;51.020;7.772;2022-09-01T09:49:32;97959.00;;;25.60
19666;BMP180;9980;51.020;7.772;2022-09-01T09:52:15;97965.00;;;25.70
19666;BMP180;9980;51.020;7.772;2022-09-01T09:57:25;97957.00;;;26.00
19666;BMP180;9980;51.020;7.772;2022-09-01T10:02:34;97956.00;;;26.20
19666;BMP180;9980;51.020;7.772;2022-09-01T10:07:54;97939.00;;;26.40
19666;BMP180;9980;51.020;7.772;2022-09-01T10:10:47;97944.00;;;26.50
19666;BMP180;9980;51.020;7.772;2022-09-01T10:13:26;97945.00;;;26.60
19666;BMP180;9980;51.020;7.772;2022-09-01T10:16:08;97960.00;;;26.70
19666;BMP180;9980;51.020;7.772;2022-09-01T10:18:41;97935.00;;;26.80
19666;BMP180;9980;51.020;7.772;2022-09-01T10:21:38;97933.00;;;26.90
19666;BMP180;9980;51.020;7.772;2022-09-01T10:26:53;97941.00;;;27.30
19666;BMP180;9980;51.020;7.772;2022-09-01T10:29:30;97935.00;;;27.40
19666;BMP180;9980;51.020;7.772;2022-09-01T10:32:20;97935.00;;;27.60
19666;BMP180;9980;51.020;7.772;2022-09-01T10:35:20;97950.00;;;27.70
19666;BMP180;9980;51.020;7.772;2022-09-01T10:37:51;97925.00;;;27.90
19666;BMP180;9980;51.020;7.772;2022-09-01T10:43:35;97946.00;;;28.10
19666;BMP180;9980;51.020;7.772;2022-09-01T10:48:56;97932.00;;;28.30
19666;BMP180;9980;51.020;7.772;2022-09-01T10:54:04;97932.00;;;28.50
19666;BMP180;9980;51.020;7.772;2022-09-01T10:56:47;97929.00;;;28.40
19666;BMP180;9980;51.020;7.772;2022-09-01T11:02:14;97942.00;;;28.40
19666;BMP180;9980;51.020;7.772;2022-09-01T11:07:34;97928.00;;;28.30
19666;BMP180;9980;51.020;7.772;2022-09-01T11:10:49;97927.00;;;28.30
19666;BMP180;9980;51.020;7.772;2022-09-01T11:16:32;97929.00;;;28.40
19666;BMP180;9980;51.020;7.772;2022-09-01T11:22:24;97938.00;;;28.50
19666;BMP180;9980;51.020;7.772;2022-09-01T11:30:58;97933.00;;;28.60
19666;BMP180;9980;51.020;7.772;2022-09-01T11:36:55;97930.00;;;28.80
19666;BMP180;9980;51.020;7.772;2022-09-01T11:39:51;97932.00;;;28.90
19666;BMP180;9980;51.020;7.772;2022-09-01T11:42:27;97923.00;;;29.00
19666;BMP180;9980;51.020;7.772;2022-09-01T11:45:26;97930.00;;;29.10
19666;BMP180;9980;51.020;7.772;2022-09-01T11:48:02;97923.00;;;29.20
19666;BMP180;9980;51.020;7.772;2022-09-01T11:50:38;97928.00;;;29.30
19666;BMP180;9980;51.020;7.772;2022-09-01T11:53:09;97920.00;;;29.50
19666;BMP180;9980;51.020;7.772;2022-09-01T11:55:48;97913.00;;;29.60
19666;BMP180;9980;51.020;7.772;2022-09-01T11:58:31;97916.00;;;29.70
19666;BMP180;9980;51.020;7.772;2022-09-01T12:01:31;97920.00;;;29.90
19666;BMP180;9980;51.020;7.772;2022-09-01T12:04:22;97910.00;;;30.00
19666;BMP180;9980;51.020;7.772;2022-09-01T12:06:55;97911.00;;;30.10
19666;BMP180;9980;51.020;7.772;2022-09-01T12:09:51;97911.00;;;30.10
19666;BMP180;9980;51.020;7.772;2022-09-01T12:12:37;97913.00;;;30.20
19666;BMP180;9980;51.020;7.772;2022-09-01T12:15:25;97917.00;;;30.20
19666;BMP180;9980;51.020;7.772;2022-09-01T12:18:08;97917.00;;;30.30
19666;BMP180;9980;51.020;7.772;2022-09-01T12:20:37;97896.00;;;30.40
19666;BMP180;9980;51.020;7.772;2022-09-01T12:25:49;97894.00;;;30.50
19666;BMP180;9980;51.020;7.772;2022-09-01T12:28:17;97898.00;;;30.60
19666;BMP180;9980;51.020;7.772;2022-09-01T12:30:44;97901.00;;;30.50
19666;BMP180;9980;51.020;7.772;2022-09-01T12:33:12;97891.00;;;30.50
19666;BMP180;9980;51.020;7.772;2022-09-01T12:36:32;97893.00;;;30.40
19666;BMP180;9980;51.020;7.772;2022-09-01T12:39:24;97894.00;;;30.30
19666;BMP180;9980;51.020;7.772;2022-09-01T12:52:54;97888.00;;;30.20
19666;BMP180;9980;51.020;7.772;2022-09-01T12:55:33;97884.00;;;30.10
19666;BMP180;9980;51.020;7.772;2022-09-01T12:58:23;97886.00;;;30.00
19666;BMP180;9980;51.020;7.772;2022-09-01T13:01:07;97876.00;;;29.90
19666;BMP180;9980;51.020;7.772;2022-09-01T13:06:49;97882.00;;;29.70
19666;BMP180;9980;51.020;7.772;2022-09-01T13:09:16;97883.00;;;29.60
19666;BMP180;9980;51.020;7.772;2022-09-01T13:11:43;97874.00;;;29.50
19666;BMP180;9980;51.020;7.772;2022-09-01T13:14:33;97887.00;;;29.40
19666;BMP180;9980;51.020;7.772;2022-09-01T13:17:00;97875.00;;;29.40
19666;BMP180;9980;51.020;7.772;2022-09-01T13:19:27;97879.00;;;29.30
19666;BMP180;9980;51.020;7.772;2022-09-01T13:21:56;97874.00;;;29.20
19666;BMP180;9980;51.020;7.772;2022-09-01T13:24:23;97878.00;;;29.20
19666;BMP180;9980;51.020;7.772;2022-09-01T13:26:57;97872.00;;;29.10
19666;BMP180;9980;51.020;7.772;2022-09-01T13:29:44;97860.00;;;29.10
19666;BMP180;9980;51.020;7.772;2022-09-01T13:32:13;97864.00;;;29.10
19666;BMP180;9980;51.020;7.772;2022-09-01T13:34:47;97876.00;;;29.10
19666;BMP180;9980;51.020;7.772;2022-09-01T13:37:17;97864.00;;;29.10
19666;BMP180;9980;51.020;7.772;2022-09-01T13:39:44;97859.00;;;29.10
19666;BMP180;9980;51.020;7.772;2022-09-01T13:42:13;97850.00;;;29.10
19666;BMP180;9980;51.020;7.772;2022-09-01T13:44:42;97856.00;;;29.10
19666;BMP180;9980;51.020;7.772;2022-09-01T13:47:10;97853.00;;;29.10
19666;BMP180;9980;51.020;7.772;2022-09-01T13:49:58;97852.00;;;29.20
19666;BMP180;9980;51.020;7.772;2022-09-01T13:52:41;97845.00;;;29.30
19666;BMP180;9980;51.020;7.772;2022-09-01T13:55:17;97841.00;;;29.30
19666;BMP180;9980;51.020;7.772;2022-09-01T13:57:44;97837.00;;;29.50
19666;BMP180;9980;51.020;7.772;2022-09-01T14:00:16;97842.00;;;29.50
19666;BMP180;9980;51.020;7.772;2022-09-01T14:02:47;97843.00;;;29.60
19666;BMP180;9980;51.020;7.772;2022-09-01T14:05:21;97844.00;;;29.70
19666;BMP180;9980;51.020;7.772;2022-09-01T14:07:49;97844.00;;;29.80
19666;BMP180;9980;51.020;7.772;2022-09-01T14:10:19;97856.00;;;29.90
19666;BMP180;9980;51.020;7.772;2022-09-01T14:12:47;97841.00;;;29.90
19666;BMP180;9980;51.020;7.772;2022-09-01T14:15:16;97843.00;;;29.90
19666;BMP180;9980;51.020;7.772;2022-09-01T14:17:53;97840.00;;;29.90
19666;BMP180;9980;51.020;7.772;2022-09-01T14:20:29;97830.00;;;29.90
19666;BMP180;9980;51.020;7.772;2022-09-01T14:23:05;97831.00;;;29.80
19666;BMP180;9980;51.020;7.772;2022-09-01T14:25:33;97841.00;;;29.80
19666;BMP180;9980;51.020;7.772;2022-09-01T14:28:00;97838.00;;;29.80
19666;BMP180;9980;51.020;7.772;2022-09-01T14:30:32;97835.00;;;29.70
19666;BMP180;9980;51.020;7.772;2022-09-01T14:33:00;97841.00;;;29.80
19666;BMP180;9980;51.020;7.772;2022-09-01T14:35:29;97849.00;;;29.70
19666;BMP180;9980;51.020;7.772;2022-09-01T14:38:00;97850.00;;;29.70
19666;BMP180;9980;51.020;7.772;2022-09-01T14:40:28;97838.00;;;29.60
19666;BMP180;9980;51.020;7.772;2022-09-01T14:42:55;97842.00;;;29.50
19666;BMP180;9980;51.020;7.772;2022-09-01T14:45:26;97836.00;;;29.50
19666;BMP180;9980;51.020;7.772;2022-09-01T14:47:58;97844.00;;;29.40
19666;BMP180;9980;51.020;7.772;2022-09-01T14:50:29;97834.00;;;29.30
19666;BMP180;9980;51.020;7.772;2022-09-01T14:53:01;97835.00;;;29.20
19666;BMP180;9980;51.020;7.772;2022-09-01T14:55:30;97818.00;;;29.10
19666;BMP180;9980;51.020;7.772;2022-09-01T14:57:58;97827.00;;;29.10
19666;BMP180;9980;51.020;7.772;2022-09-01T15:00:27;97826.00;;;29.00
19666;BMP180;9980;51.020;7.772;2022-09-01T15:02:55;97824.00;;;28.90
19666;BMP180;9980;51.020;7.772;2022-09-01T15:05:23;97820.00;;;28.80
19666;BMP180;9980;51.020;7.772;2022-09-01T15:07:52;97828.00;;;28.80
19666;BMP180;9980;51.020;7.772;2022-09-01T15:10:23;97826.00;;;28.70
19666;BMP180;9980;51.020;7.772;2022-09-01T15:12:57;97818.00;;;28.60
19666;BMP180;9980;51.020;7.772;2022-09-01T15:15:26;97823.00;;;28.60
19666;BMP180;9980;51.020;7.772;2022-09-01T15:17:54;97812.00;;;28.60
19666;BMP180;9980;51.020;7.772;2022-09-01T15:20:23;97797.00;;;28.60
19666;BMP180;9980;51.020;7.772;2022-09-01T15:23:20;97803.00;;;28.60
19666;BMP180;9980;51.020;7.772;2022-09-01T15:25:52;97806.00;;;28.70
19666;BMP180;9980;51.020;7.772;2022-09-01T15:28:20;97790.00;;;28.70
19666;BMP180;9980;51.020;7.772;2022-09-01T15:30:49;97796.00;;;28.80
19666;BMP180;9980;51.020;7.772;2022-09-01T15:33:20;97798.00;;;28.80
19666;BMP180;9980;51.020;7.772;2022-09-01T15:35:47;97805.00;;;28.90
19666;BMP180;9980;51.020;7.772;2022-09-01T15:38:15;97803.00;;;28.90
19666;BMP180;9980;51.020;7.772;2022-09-01T15:40:44;97790.00;;;28.90
19666;BMP180;9980;51.020;7.772;2022-09-01T15:43:24;97789.00;;;29.00
19666;BMP180;9980;51.020;7.772;2022-09-01T15:45:51;97782.00;;;29.00
19666;BMP180;9980;51.020;7.772;2022-09-01T15:48:18;97789.00;;;29.00
19666;BMP180;9980;51.020;7.772;2022-09-01T15:50:45;97789.00;;;29.00
19666;BMP180;9980;51.020;7.772;2022-09-01T15:53:12;97787.00;;;29.00
19666;BMP180;9980;51.020;7.772;2022-09-01T15:55:43;97791.00;;;29.00
19666;BMP180;9980;51.020;7.772;2022-09-01T15:58:14;97793.00;;;29.00
19666;BMP180;9980;51.020;7.772;2022-09-01T16:00:43;97794.00;;;29.00
19666;BMP180;9980;51.020;7.772;2022-09-01T16:03:10;97804.00;;;29.00
19666;BMP180;9980;51.020;7.772;2022-09-01T16:05:39;97795.00;;;29.00
19666;BMP180;9980;51.020;7.772;2022-09-01T16:08:07;97792.00;;;29.00
19666;BMP180;9980;51.020;7.772;2022-09-01T16:10:38;97791.00;;;28.90
19666;BMP180;9980;51.020;7.772;2022-09-01T16:13:06;97793.00;;;28.90
19666;BMP180;9980;51.020;7.772;2022-09-01T16:15:33;97801.00;;;28.90
19666;BMP180;9980;51.020;7.772;2022-09-01T16:18:33;97779.00;;;28.80